createdAt,value
2019-02-21T00:01:08.635Z,92.90
2019-02-21T00:03:40.994Z,99.47
2019-02-21T00:06:13.526Z,93.42
2019-02-21T00:08:45.991Z,90.20
2019-02-21T00:11:18.382Z,87.95
2019-02-21T00:13:50.998Z,91.75
2019-02-21T00:16:23.295Z,84.07
2019-02-21T00:18:55.969Z,85.72
2019-02-21T00:21:28.347Z,85.40
2019-02-21T00:24:01.386Z,81.67
2019-02-21T00:26:34.136Z,79.50
2019-02-21T00:29:06.576Z,81.17
2019-02-21T00:31:40.108Z,77.03
2019-02-21T00:34:12.727Z,83.58
2019-02-21T00:36:46.122Z,78.47
2019-02-21T00:39:18.415Z,77.97
2019-02-21T00:41:50.598Z,80.47
2019-02-21T00:44:23.369Z,76.65
2019-02-21T00:46:55.579Z,81.00
2019-02-21T00:49:28.110Z,79.32
2019-02-21T00:52:02.644Z,74.27
2019-02-21T00:54:34.383Z,81.80
2019-02-21T00:57:06.658Z,77.80
2019-02-21T00:59:39.140Z,76.55
2019-02-21T01:02:11.310Z,78.83
2019-02-21T01:04:44.059Z,72.87
2019-02-21T01:07:16.384Z,71.28
2019-02-21T01:09:49.027Z,81.80
2019-02-21T01:12:21.648Z,80.85
2019-02-21T01:14:54.231Z,69.72
2019-02-21T01:17:26.456Z,72.60
2019-02-21T01:19:59.373Z,75.22
2019-02-21T01:22:32.110Z,72.12
2019-02-21T01:25:04.521Z,82.22
2019-02-21T01:27:37.465Z,76.15
2019-02-21T01:30:10.882Z,77.03
2019-02-21T01:32:43.795Z,81.42
2019-02-21T01:35:16.185Z,84.62
2019-02-21T01:37:48.688Z,86.75
2019-02-21T01:40:20.961Z,89.80
2019-02-21T01:42:53.673Z,90.80
2019-02-21T01:45:25.979Z,88.27
2019-02-21T01:47:58.540Z,90.22
2019-02-21T01:50:31.577Z,93.12
2019-02-21T01:53:04.428Z,90.80
2019-02-21T01:55:37.129Z,91.00
2019-02-21T01:58:09.561Z,88.00
2019-02-21T02:00:41.784Z,84.62
2019-02-21T02:03:14.392Z,85.95
2019-02-21T02:05:47.083Z,82.82
2019-02-21T02:08:19.279Z,80.77
2019-02-21T02:10:51.591Z,76.40
2019-02-21T02:13:25.056Z,78.65
2019-02-21T02:15:57.615Z,71.97
2019-02-21T02:18:30.246Z,73.85
2019-02-21T02:21:02.941Z,73.67
2019-02-21T02:23:36.947Z,82.70
2019-02-21T02:26:09.961Z,77.47
2019-02-21T02:28:43.081Z,66.57
2019-02-21T02:31:22.843Z,71.07
2019-02-21T02:33:51.987Z,72.22
2019-02-21T02:36:24.494Z,72.92
2019-02-21T02:38:57.227Z,69.77
2019-02-21T02:41:30.583Z,68.35
2019-02-21T02:44:02.934Z,65.35
2019-02-21T02:46:35.897Z,62.17
2019-02-21T02:49:09.556Z,56.68
2019-02-21T02:51:42.222Z,56.77
2019-02-21T02:54:14.542Z,66.07
2019-02-21T02:56:48.252Z,60.50
2019-02-21T02:59:20.791Z,52.30
2019-02-21T03:01:54.266Z,51.85
2019-02-21T03:04:26.887Z,52.05
2019-02-21T03:06:59.708Z,50.12
2019-02-21T03:09:32.614Z,52.83
2019-02-21T03:12:04.973Z,51.25
2019-02-21T03:14:37.373Z,50.30
2019-02-21T03:17:10.035Z,48.95
2019-02-21T03:19:43.803Z,48.87
2019-02-21T03:22:16.242Z,50.73
2019-02-21T03:24:49.043Z,48.95
2019-02-21T03:27:21.938Z,52.23
2019-02-21T03:29:54.185Z,49.27
2019-02-21T03:32:27.029Z,46.20
2019-02-21T03:34:59.607Z,55.20
2019-02-21T03:37:32.626Z,46.18
2019-02-21T03:40:05.910Z,50.48
2019-02-21T03:42:38.509Z,51.60
2019-02-21T03:45:12.939Z,54.55
2019-02-21T03:47:45.217Z,49.53
2019-02-21T03:50:18.791Z,55.00
2019-02-21T03:52:51.135Z,53.83
2019-02-21T03:55:24.353Z,50.95
2019-02-21T03:57:56.651Z,53.38
2019-02-21T04:00:29.455Z,48.20
2019-02-21T04:03:02.501Z,51.63
2019-02-21T04:05:35.071Z,52.62
2019-02-21T04:08:07.700Z,53.63
2019-02-21T04:10:40.001Z,53.38
2019-02-21T04:13:15.204Z,53.50
2019-02-21T04:15:46.897Z,59.30
2019-02-21T04:18:19.110Z,53.33
2019-02-21T04:20:52.176Z,54.25
2019-02-21T04:23:24.511Z,52.65
2019-02-21T04:25:56.822Z,52.03
2019-02-21T04:28:29.486Z,51.02
2019-02-21T04:31:01.593Z,56.53
2019-02-21T04:33:34.526Z,112.25
2019-02-21T04:36:08.082Z,82.37
2019-02-21T04:38:41.679Z,48.58
2019-02-21T04:41:14.186Z,51.08
2019-02-21T04:43:46.680Z,57.73
2019-02-21T04:46:19.420Z,40.75
2019-02-21T04:48:51.781Z,38.85
2019-02-21T04:51:24.112Z,38.00
2019-02-21T04:53:56.539Z,36.38
2019-02-21T04:56:29.323Z,36.30
2019-02-21T04:59:01.737Z,35.15
2019-02-21T05:01:34.043Z,36.50
2019-02-21T05:04:06.553Z,38.23
2019-02-21T05:06:39.031Z,38.35
2019-02-21T05:09:11.554Z,35.70
2019-02-21T05:11:43.999Z,34.13
2019-02-21T05:14:16.410Z,35.28
2019-02-21T05:16:48.943Z,31.75
2019-02-21T05:19:21.176Z,35.48
2019-02-21T05:21:53.312Z,39.67
2019-02-21T05:24:25.784Z,32.03
2019-02-21T05:26:59.238Z,31.68
2019-02-21T05:29:31.519Z,33.13
2019-02-21T05:32:05.046Z,32.78
2019-02-21T05:34:38.732Z,33.58
2019-02-21T05:37:12.350Z,33.92
2019-02-21T05:39:45.949Z,34.30
2019-02-21T05:42:19.560Z,28.83
2019-02-21T05:44:53.413Z,29.85
2019-02-21T05:47:27.879Z,30.80
2019-02-21T05:50:01.608Z,28.70
2019-02-21T05:52:36.335Z,28.57
2019-02-21T05:55:10.552Z,32.50
2019-02-21T05:57:45.045Z,28.65
2019-02-21T06:00:19.084Z,29.45
2019-02-21T06:02:53.770Z,26.65
2019-02-21T06:05:27.497Z,28.92
2019-02-21T06:08:01.427Z,29.70
2019-02-21T06:10:35.279Z,26.55
2019-02-21T06:13:08.872Z,27.65
2019-02-21T06:15:42.503Z,27.13
2019-02-21T06:18:17.769Z,27.55
2019-02-21T06:20:51.224Z,27.20
2019-02-21T06:23:25.131Z,28.47
2019-02-21T06:25:59.336Z,27.87
2019-02-21T06:28:34.745Z,27.30
2019-02-21T06:31:08.516Z,26.65
2019-02-21T06:33:40.864Z,25.40
2019-02-21T06:36:13.246Z,27.55
2019-02-21T06:38:45.712Z,26.33
2019-02-21T06:41:18.139Z,27.10
2019-02-21T06:43:52.601Z,25.70
2019-02-21T06:46:24.009Z,29.90
2019-02-21T06:48:56.514Z,27.67
2019-02-21T06:51:28.763Z,26.90
2019-02-21T06:54:01.280Z,27.35
2019-02-21T06:56:34.213Z,27.82
2019-02-21T06:59:06.910Z,26.40
2019-02-21T07:01:39.549Z,27.73
2019-02-21T07:04:12.857Z,31.35
2019-02-21T07:06:45.214Z,25.75
2019-02-21T07:09:17.797Z,31.02
2019-02-21T07:11:50.385Z,26.10
2019-02-21T07:14:22.753Z,28.32
2019-02-21T07:16:55.521Z,26.77
2019-02-21T07:19:27.807Z,27.40
2019-02-21T07:22:00.068Z,30.60
2019-02-21T07:24:32.436Z,25.95
2019-02-21T07:27:05.122Z,26.23
2019-02-21T07:29:38.781Z,24.82
2019-02-21T07:32:12.847Z,26.07
2019-02-21T07:34:45.787Z,25.88
2019-02-21T07:37:19.105Z,26.48
2019-02-21T07:39:51.926Z,26.48
2019-02-21T07:42:24.135Z,29.02
2019-02-21T07:44:59.489Z,28.25
2019-02-21T07:47:31.200Z,26.50
2019-02-21T07:50:04.227Z,24.63
2019-02-21T07:52:37.169Z,24.23
2019-02-21T07:55:10.625Z,25.35
2019-02-21T07:57:43.148Z,28.75
2019-02-21T08:00:16.705Z,27.48
2019-02-21T08:02:49.414Z,25.75
2019-02-21T08:05:23.716Z,24.87
2019-02-21T08:07:55.764Z,25.52
2019-02-21T08:10:33.595Z,24.18
2019-02-21T08:13:02.131Z,26.70
2019-02-21T08:15:34.382Z,22.27
2019-02-21T08:18:06.567Z,20.43
2019-02-21T08:20:41.036Z,24.25
2019-02-21T08:23:12.269Z,24.60
2019-02-21T08:25:44.633Z,21.75
2019-02-21T08:28:16.804Z,21.68
2019-02-21T08:30:49.174Z,23.20
2019-02-21T08:33:22.649Z,21.15
2019-02-21T08:35:57.662Z,19.42
2019-02-21T08:38:28.901Z,19.27
2019-02-21T08:41:01.530Z,19.70
2019-02-21T08:43:33.761Z,21.73
2019-02-21T08:46:06.483Z,20.72
2019-02-21T08:48:40.522Z,19.95
2019-02-21T08:51:13.421Z,20.65
2019-02-21T08:53:45.921Z,22.05
2019-02-21T08:56:18.443Z,20.52
2019-02-21T08:58:51.245Z,36.77
2019-02-21T09:01:23.897Z,28.00
2019-02-21T09:03:56.283Z,20.10
2019-02-21T09:06:29.272Z,20.77
2019-02-21T09:09:02.241Z,18.75
2019-02-21T09:11:36.287Z,20.97
2019-02-21T09:14:08.909Z,17.77
2019-02-21T09:16:41.385Z,21.23
2019-02-21T09:19:14.532Z,21.60
2019-02-21T09:21:47.058Z,18.05
2019-02-21T09:24:37.772Z,19.90
2019-02-21T09:26:53.145Z,19.65
2019-02-21T09:29:25.853Z,22.07
2019-02-21T09:31:58.680Z,19.32
2019-02-21T09:34:31.246Z,19.15
2019-02-21T09:37:05.479Z,19.62
2019-02-21T09:39:37.693Z,18.67
2019-02-21T09:42:10.469Z,18.80
2019-02-21T09:44:42.696Z,20.68
2019-02-21T09:47:15.105Z,22.27
2019-02-21T09:49:47.304Z,21.37
2019-02-21T09:52:20.130Z,18.20
2019-02-21T09:54:52.863Z,17.90
2019-02-21T09:57:25.236Z,18.02
2019-02-21T09:59:57.620Z,20.65
2019-02-21T10:02:30.282Z,25.48
2019-02-21T10:05:05.425Z,24.32
2019-02-21T10:07:37.172Z,28.27
2019-02-21T10:10:12.154Z,24.67
2019-02-21T10:12:44.121Z,29.70
2019-02-21T10:15:18.551Z,24.75
2019-02-21T10:17:50.990Z,23.98
2019-02-21T10:20:23.892Z,25.77
2019-02-21T10:22:56.481Z,21.60
2019-02-21T10:25:30.559Z,26.30
2019-02-21T10:28:03.210Z,30.02
2019-02-21T10:30:36.385Z,25.50
2019-02-21T10:33:09.298Z,23.98
2019-02-21T10:35:41.744Z,32.80
2019-02-21T10:38:14.358Z,28.75
2019-02-21T10:40:46.764Z,27.90
2019-02-21T10:43:20.135Z,33.67
2019-02-21T10:45:52.409Z,80.15
2019-02-21T10:48:24.932Z,80.35
2019-02-21T10:50:57.239Z,73.67
2019-02-21T10:53:30.456Z,62.88
2019-02-21T10:56:02.905Z,54.20
2019-02-21T10:58:36.116Z,43.15
2019-02-21T11:01:08.803Z,37.75
2019-02-21T11:03:41.149Z,35.80
2019-02-21T11:06:13.336Z,41.95
2019-02-21T11:08:45.978Z,41.33
2019-02-21T11:11:18.316Z,37.23
2019-02-21T11:13:50.762Z,37.15
2019-02-21T11:16:23.052Z,45.20
2019-02-21T11:18:55.268Z,38.17
2019-02-21T11:21:27.850Z,35.75
2019-02-21T11:24:00.093Z,33.88
2019-02-21T11:26:32.573Z,34.08
2019-02-21T11:29:04.921Z,53.73
2019-02-21T11:31:37.700Z,57.95
2019-02-21T11:34:10.188Z,72.10
2019-02-21T11:36:42.950Z,84.65
2019-02-21T11:39:15.675Z,107.17
2019-02-21T11:41:47.836Z,116.88
2019-02-21T11:44:20.968Z,89.20
2019-02-21T11:46:53.733Z,76.65
2019-02-21T11:49:26.312Z,60.92
2019-02-21T11:52:09.500Z,52.17
2019-02-21T11:54:32.313Z,48.55
2019-02-21T11:57:04.889Z,50.33
2019-02-21T11:59:37.328Z,52.20
2019-02-21T12:02:09.595Z,56.90
2019-02-21T12:04:41.864Z,54.10
2019-02-21T12:07:14.573Z,56.02
2019-02-21T12:09:46.948Z,66.80
2019-02-21T12:12:19.432Z,64.72
2019-02-21T12:14:51.647Z,74.97
2019-02-21T12:17:24.034Z,63.60
2019-02-21T12:19:56.305Z,69.35
2019-02-21T12:22:28.493Z,74.67
2019-02-21T12:25:00.881Z,86.30
2019-02-21T12:27:33.794Z,87.90
2019-02-21T12:30:07.462Z,103.02
2019-02-21T12:32:39.850Z,100.40
2019-02-21T12:35:12.415Z,123.07
2019-02-21T12:37:46.218Z,96.25
2019-02-21T12:40:20.844Z,90.05
2019-02-21T12:42:53.379Z,80.67
2019-02-21T12:45:30.068Z,73.05
2019-02-21T12:48:01.509Z,61.18
2019-02-21T12:50:43.848Z,84.97
2019-02-21T12:53:08.239Z,93.20
2019-02-21T12:55:40.955Z,92.42
2019-02-21T12:58:13.653Z,100.72
2019-02-21T13:00:46.129Z,110.35
2019-02-21T13:03:18.636Z,124.87
2019-02-21T13:05:51.349Z,107.90
2019-02-21T13:08:23.849Z,107.65
2019-02-21T13:10:56.078Z,120.67
2019-02-21T13:13:28.636Z,102.62
2019-02-21T13:16:01.441Z,90.47
2019-02-21T13:18:33.699Z,98.52
2019-02-21T13:21:06.223Z,101.42
2019-02-21T13:23:38.660Z,86.25
2019-02-21T13:26:11.301Z,86.42
2019-02-21T13:28:43.682Z,84.52
2019-02-21T13:31:16.344Z,90.72
2019-02-21T13:33:48.995Z,85.75
2019-02-21T13:36:21.510Z,78.67
2019-02-21T13:38:53.973Z,96.02
2019-02-21T13:41:26.319Z,100.60
2019-02-21T13:43:58.819Z,97.22
2019-02-21T13:46:36.816Z,118.85
2019-02-21T13:49:04.274Z,128.10
2019-02-21T13:51:36.717Z,137.70
2019-02-21T13:54:09.403Z,140.68
2019-02-21T13:56:42.051Z,91.47
2019-02-21T13:59:14.601Z,122.58
2019-02-21T14:01:47.228Z,137.10
2019-02-21T14:04:20.109Z,156.67
2019-02-21T14:06:52.896Z,143.02
2019-02-21T14:09:25.665Z,131.30
2019-02-21T14:11:58.653Z,141.18
2019-02-21T14:14:31.372Z,133.82
2019-02-21T14:17:03.873Z,134.72
2019-02-21T14:19:36.415Z,120.65
2019-02-21T14:22:09.227Z,101.65
2019-02-21T14:24:41.772Z,115.45
2019-02-21T14:27:14.410Z,97.92
2019-02-21T14:29:46.752Z,102.87
2019-02-21T14:32:19.484Z,101.87
2019-02-21T14:34:52.001Z,99.67
2019-02-21T14:37:24.177Z,123.25
2019-02-21T14:39:56.605Z,107.78
2019-02-21T14:42:28.979Z,117.60
2019-02-21T14:45:01.358Z,100.42
2019-02-21T14:47:35.222Z,92.60
2019-02-21T14:50:10.298Z,86.65
2019-02-21T14:52:43.819Z,88.33
2019-02-21T14:55:18.068Z,86.47
2019-02-21T14:57:51.560Z,91.53
2019-02-21T15:00:26.029Z,87.55
2019-02-21T15:02:58.226Z,93.75
2019-02-21T15:05:30.779Z,100.67
2019-02-21T15:08:03.146Z,88.17
2019-02-21T15:10:35.645Z,92.12
2019-02-21T15:13:09.321Z,86.00
2019-02-21T15:15:41.488Z,87.40
2019-02-21T15:18:13.962Z,90.35
2019-02-21T15:20:47.535Z,86.42
2019-02-21T15:23:20.488Z,88.85
2019-02-21T15:25:52.976Z,98.78
2019-02-21T15:28:25.177Z,89.17
2019-02-21T15:30:57.627Z,93.50
2019-02-21T15:33:29.954Z,97.35
2019-02-21T15:36:02.869Z,90.60
2019-02-21T15:38:47.539Z,94.50
2019-02-21T15:41:19.750Z,94.00
2019-02-21T15:43:52.991Z,97.05
2019-02-21T15:46:25.730Z,92.05
2019-02-21T15:48:58.565Z,94.62
2019-02-21T15:51:31.503Z,89.42
2019-02-21T15:54:04.278Z,87.33
2019-02-21T15:56:37.679Z,84.55
2019-02-21T15:59:10.201Z,88.45
2019-02-21T16:01:47.624Z,90.32
2019-02-21T16:04:16.035Z,84.65
2019-02-21T16:06:51.429Z,81.50
2019-02-21T16:09:25.251Z,80.92
2019-02-21T16:11:56.848Z,80.53
2019-02-21T16:14:29.375Z,71.60
2019-02-21T16:17:01.699Z,76.62
2019-02-21T16:19:34.125Z,82.40
2019-02-21T16:22:06.523Z,84.00
2019-02-21T16:24:40.224Z,88.95
2019-02-21T16:27:12.855Z,78.35
2019-02-21T16:29:45.240Z,79.65
2019-02-21T16:32:17.744Z,83.47
2019-02-21T16:34:50.380Z,79.77
2019-02-21T16:37:24.005Z,87.95
2019-02-21T16:39:56.492Z,160.52
2019-02-21T16:42:28.901Z,90.90
2019-02-21T16:45:01.721Z,82.50
2019-02-21T16:47:35.291Z,82.72
2019-02-21T16:50:11.169Z,75.97
2019-02-21T16:52:43.569Z,87.75
2019-02-21T16:55:17.991Z,80.72
2019-02-21T16:57:50.437Z,82.30
2019-02-21T17:00:24.603Z,80.30
2019-02-21T17:02:57.068Z,79.03
2019-02-21T17:05:29.872Z,79.80
2019-02-21T17:08:02.297Z,84.05
2019-02-21T17:10:34.444Z,88.78
2019-02-21T17:13:07.387Z,93.12
2019-02-21T17:15:40.135Z,88.15
2019-02-21T17:18:12.337Z,85.97
2019-02-21T17:20:44.759Z,83.52
2019-02-21T17:23:22.914Z,82.05
2019-02-21T17:25:50.845Z,90.45
2019-02-21T17:28:23.116Z,83.17
2019-02-21T17:30:55.947Z,93.52
2019-02-21T17:33:28.363Z,81.57
2019-02-21T17:36:01.912Z,79.07
2019-02-21T17:38:34.386Z,88.17
2019-02-21T17:41:07.007Z,89.62
2019-02-21T17:43:39.357Z,84.50
2019-02-21T17:46:11.758Z,78.50
2019-02-21T17:48:44.345Z,80.67
2019-02-21T17:51:16.662Z,84.13
2019-02-21T17:53:48.923Z,80.87
2019-02-21T17:56:21.353Z,79.22
2019-02-21T17:58:53.800Z,72.00
2019-02-21T18:01:27.028Z,73.83
2019-02-21T18:03:59.521Z,75.57
2019-02-21T18:06:31.874Z,73.92
2019-02-21T18:09:05.495Z,78.30
2019-02-21T18:11:36.759Z,74.67
2019-02-21T18:14:09.352Z,73.85
2019-02-21T18:16:41.783Z,80.12
2019-02-21T18:19:14.106Z,76.65
2019-02-21T18:21:46.922Z,73.25
2019-02-21T18:24:19.349Z,72.80
2019-02-21T18:26:52.131Z,74.55
2019-02-21T18:29:24.562Z,74.50
2019-02-21T18:31:57.026Z,77.15
2019-02-21T18:34:29.443Z,68.97
2019-02-21T18:37:02.027Z,77.30
2019-02-21T18:39:34.381Z,79.22
2019-02-21T18:42:06.724Z,76.28
2019-02-21T18:44:39.985Z,74.15
2019-02-21T18:47:12.297Z,72.78
2019-02-21T18:49:44.616Z,75.75
2019-02-21T18:52:17.056Z,74.12
2019-02-21T18:54:49.567Z,72.15
2019-02-21T18:57:22.124Z,79.50
2019-02-21T18:59:54.578Z,74.07
2019-02-21T19:02:26.910Z,74.90
2019-02-21T19:05:00.482Z,79.90
2019-02-21T19:07:33.303Z,81.10
2019-02-21T19:10:07.114Z,72.87
2019-02-21T19:12:39.406Z,69.77
2019-02-21T19:15:13.226Z,71.25
2019-02-21T19:17:45.535Z,71.75
2019-02-21T19:20:19.613Z,65.17
2019-02-21T19:22:52.237Z,66.67
2019-02-21T19:25:24.540Z,70.10
2019-02-21T19:27:56.781Z,73.62
2019-02-21T19:30:31.281Z,69.47
2019-02-21T19:33:03.924Z,67.35
2019-02-21T19:35:36.232Z,66.75
2019-02-21T19:38:10.670Z,61.95
2019-02-21T19:40:42.908Z,71.82
2019-02-21T19:43:15.255Z,65.32
2019-02-21T19:45:47.940Z,68.83
2019-02-21T19:48:21.507Z,71.10
2019-02-21T19:50:54.065Z,64.47
2019-02-21T19:53:26.341Z,63.58
2019-02-21T19:55:59.102Z,68.25
2019-02-21T19:58:31.458Z,65.47
2019-02-21T20:01:03.786Z,67.75
2019-02-21T20:03:36.037Z,68.72
2019-02-21T20:06:08.585Z,67.78
2019-02-21T20:08:41.235Z,69.67
2019-02-21T20:11:13.520Z,69.40
2019-02-21T20:13:45.820Z,69.50
2019-02-21T20:16:18.148Z,67.45
2019-02-21T20:18:50.496Z,66.37
2019-02-21T20:21:22.840Z,69.65
2019-02-21T20:23:55.147Z,69.45
2019-02-21T20:26:27.857Z,64.15
2019-02-21T20:29:00.137Z,70.87
2019-02-21T20:31:32.477Z,70.32
2019-02-21T20:34:05.023Z,75.30
2019-02-21T20:36:37.747Z,68.40
2019-02-21T20:39:10.100Z,70.42
2019-02-21T20:41:42.447Z,71.47
2019-02-21T20:44:15.150Z,66.00
2019-02-21T20:46:47.770Z,70.40
2019-02-21T20:49:20.147Z,74.32
2019-02-21T20:51:52.582Z,77.25
2019-02-21T20:54:25.229Z,77.27
2019-02-21T20:56:58.119Z,74.42
2019-02-21T20:59:30.479Z,74.67
2019-02-21T21:02:02.810Z,77.45
2019-02-21T21:04:35.174Z,72.35
2019-02-21T21:07:07.634Z,73.57
2019-02-21T21:09:40.056Z,79.50
2019-02-21T21:12:12.528Z,79.75
2019-02-21T21:14:44.980Z,71.57
2019-02-21T21:17:18.627Z,75.92
2019-02-21T21:19:51.080Z,76.37
2019-02-21T21:22:26.163Z,73.22
2019-02-21T21:24:58.890Z,75.52
2019-02-21T21:27:31.776Z,74.12
2019-02-21T21:30:04.743Z,78.22
2019-02-21T21:32:38.408Z,82.12
2019-02-21T21:35:11.237Z,78.67
2019-02-21T21:37:44.789Z,73.75
2019-02-21T21:40:19.073Z,85.47
2019-02-21T21:42:51.407Z,82.85
2019-02-21T21:45:24.041Z,77.47
2019-02-21T21:47:57.348Z,81.32
2019-02-21T21:50:30.092Z,82.27
2019-02-21T21:53:02.553Z,83.10
2019-02-21T21:55:35.008Z,77.60
2019-02-21T21:58:08.477Z,81.72
2019-02-21T22:00:41.232Z,74.62
2019-02-21T22:03:14.627Z,79.77
2019-02-21T22:05:47.037Z,74.03
2019-02-21T22:08:19.285Z,67.42
2019-02-21T22:10:51.819Z,72.22
2019-02-21T22:13:24.206Z,71.65
2019-02-21T22:15:56.640Z,77.82
2019-02-21T22:18:29.674Z,73.00
2019-02-21T22:21:02.154Z,75.00
2019-02-21T22:23:34.702Z,73.70
2019-02-21T22:26:08.077Z,68.50
2019-02-21T22:28:40.575Z,71.92
2019-02-21T22:31:12.993Z,75.03
2019-02-21T22:33:45.461Z,72.80
2019-02-21T22:36:19.540Z,72.37
2019-02-21T22:38:51.605Z,72.87
2019-02-21T22:41:24.177Z,77.95
2019-02-21T22:43:56.577Z,76.50
2019-02-21T22:46:29.180Z,79.30
2019-02-21T22:49:01.486Z,74.30
2019-02-21T22:51:33.850Z,69.70
2019-02-21T22:54:06.840Z,73.78
2019-02-21T22:56:39.298Z,77.70
2019-02-21T22:59:12.283Z,81.90
2019-02-21T23:01:44.620Z,75.30
2019-02-21T23:04:19.191Z,74.92
2019-02-21T23:06:54.070Z,82.30
2019-02-21T23:09:28.084Z,86.08
2019-02-21T23:12:01.133Z,86.37
2019-02-21T23:14:33.340Z,89.05
2019-02-21T23:17:06.050Z,82.42
2019-02-21T23:19:38.364Z,79.87
2019-02-21T23:22:11.703Z,79.05
2019-02-21T23:24:44.133Z,83.75
2019-02-21T23:27:16.451Z,85.80
2019-02-21T23:29:48.969Z,88.50
2019-02-21T23:32:21.757Z,84.37
2019-02-21T23:34:54.071Z,93.00
2019-02-21T23:37:26.651Z,86.67
2019-02-21T23:39:59.466Z,87.33
2019-02-21T23:42:32.000Z,91.25
2019-02-21T23:45:04.760Z,86.92
2019-02-21T23:47:37.311Z,84.65
2019-02-21T23:50:09.780Z,96.50
2019-02-21T23:52:42.106Z,97.78
2019-02-21T23:55:14.501Z,86.95
2019-02-21T23:57:47.930Z,120.92
